Terminal Aerodrome Forecast
Issued by NWS

Home | Current Version | Previous Version | Text Only | Print | Product List | Glossary On
Versions: 1 2 3 4 5 6 7 8 9 10 11 12 13 14 15
200
FTUS45 KVEF 200539
TAFVGT
TAF
KVGT 200539Z 2006/2106 VRB05KT P6SM FEW080 SCT150
     FM201200 31007KT P6SM SCT060 BKN100
     FM201800 16012G20KT P6SM -SHRA BKN050 OVC090
     FM202200 16014G22KT P6SM -RA BKN030 OVC050
     FM210400 20015G25KT P6SM VCSH FEW030 SCT050 BKN090=

USA.gov is the U.S. government's official web portal to all federal, state and local government web resources and services.